^^
Meteo Knjazevac Station Historical Data
Daily Summary for March 20, 2021 Units:  English    Metric   Both
Daily Weekly Monthly Yearly Custom
  High: Low: Average:
Temperature: 57.9 °F 47.8 °F 51.6 °F
Dew Point: 51.2 °F 44.3 °F 46.7 °F
Humidity: 90% 73% 83%
Wind Speed: 2mph 0mph 0.8mph
Wind Gust: 5mph - -
Wind- - West
Pressure: 30.10 in 30.07 in -
Precipitation: 0.00 in    
Historical Graphs
 
 
Tabular Data for March 20, 2021
Time Temperature Dew Point Pressure Wind Wind Speed Wind Gust Humidity Rainfall Rate (Hourly) solar Conditions
00:00 57.9 °F 49.3 °F 30.07 in WNW 1 mph 2 mph 73% 0.00 in 0 W/m2
00:10 57.6 °F 49.3 °F 30.07 in Calm   2 mph 74% 0.00 in 0 W/m2
00:20 57 °F 48.8 °F 30.07 in Calm   1 mph 74% 0.00 in 0 W/m2
00:30 56.8 °F 48.6 °F 30.07 in Calm     74% 0.00 in 0 W/m2
01:00 55.6 °F 48.5 °F 30.08 in Calm   1 mph 77% 0.00 in 0 W/m2
01:10 55.2 °F 48.1 °F 30.08 in Calm   1 mph 77% 0.00 in 0 W/m2
01:20 55 °F 48 °F 30.08 in Calm     77% 0.00 in 0 W/m2
01:30 54.7 °F 48 °F 30.08 in Calm   2 mph 78% 0.00 in 0 W/m2
01:40 54.4 °F 47.7 °F 30.08 in Calm     78% 0.00 in 0 W/m2
01:50 54.1 °F 47.4 °F 30.08 in Calm   1 mph 78% 0.00 in 0 W/m2
02:00 53.7 °F 47.3 °F 30.08 in Calm   1 mph 79% 0.00 in 0 W/m2
02:10 53.2 °F 46.9 °F 30.08 in Calm   1 mph 79% 0.00 in 0 W/m2
02:20 52.9 °F 46.9 °F 30.08 in NNW 1 mph 1 mph 80% 0.00 in 0 W/m2
02:30 52.3 °F 46.4 °F 30.08 in WNW 1 mph 2 mph 80% 0.00 in 0 W/m2
02:40 52 °F 46.3 °F 30.08 in NW 1 mph 2 mph 81% 0.00 in 0 W/m2
02:50 51.8 °F 46.2 °F 30.08 in WSW 1 mph 3 mph 81% 0.00 in 0 W/m2
03:00 51.6 °F 46.6 °F 30.08 in WNW 1 mph 5 mph 83% 0.00 in 0 W/m2
03:10 51.6 °F 46.6 °F 30.08 in WNW 1 mph 3 mph 83% 0.00 in 0 W/m2
03:20 51.4 °F 46.4 °F 30.08 in Calm   1 mph 83% 0.00 in 0 W/m2
03:30 51.1 °F 46.1 °F 30.08 in NW 2 mph 3 mph 83% 0.00 in 0 W/m2
03:40 50.7 °F 46.1 °F 30.08 in WNW 1 mph 2 mph 84% 0.00 in 0 W/m2
03:50 50.5 °F 45.9 °F 30.08 in WNW 1 mph 2 mph 84% 0.00 in 0 W/m2
04:00 50.4 °F 45.7 °F 30.08 in West 1 mph 3 mph 84% 0.00 in 0 W/m2
04:10 50 °F 45.4 °F 30.08 in West 1 mph 2 mph 84% 0.00 in 0 W/m2
04:20 49.6 °F 45.3 °F 30.08 in Calm   2 mph 85% 0.00 in 0 W/m2
04:30 49.5 °F 45.1 °F 30.08 in West 1 mph 4 mph 85% 0.00 in 0 W/m2
04:40 49.3 °F 45 °F 30.08 in West 1 mph 3 mph 85% 0.00 in 0 W/m2
04:50 49.5 °F 45.4 °F 30.08 in West 1 mph 3 mph 86% 0.00 in 0 W/m2
05:00 49.3 °F 45 °F 30.08 in WNW 1 mph 3 mph 85% 0.00 in 0 W/m2
05:10 49.4 °F 45.4 °F 30.08 in WNW 1 mph 3 mph 86% 0.00 in 0 W/m2
05:20 49.1 °F 45.1 °F 30.09 in NW 1 mph 4 mph 86% 0.00 in 0 W/m2
05:30 48.7 °F 44.7 °F 30.09 in WSW 1 mph 3 mph 86% 0.00 in 0 W/m2
05:40 48.3 °F 44.3 °F 30.09 in West 1 mph 4 mph 86% 0.00 in 0 W/m2
05:50 48 °F 44.6 °F 30.09 in West 2 mph 3 mph 88% 0.00 in 9 W/m2
06:00 48 °F 44.6 °F 30.09 in WSW 1 mph 4 mph 88% 0.00 in 17 W/m2
06:10 47.8 °F 44.5 °F 30.10 in West 1 mph 3 mph 88% 0.00 in 28 W/m2
06:20 47.8 °F 44.8 °F 30.10 in West 2 mph 4 mph 89% 0.00 in 49 W/m2
06:30 47.8 °F 44.8 °F 30.10 in West 2 mph 3 mph 89% 0.00 in 71 W/m2
06:40 48 °F 44.9 °F 30.10 in WSW 2 mph 3 mph 89% 0.00 in 95 W/m2
06:50 48.2 °F 45.1 °F 30.10 in WSW 2 mph 3 mph 89% 0.00 in 123 W/m2
07:00 48.7 °F 45.9 °F 30.10 in WNW 1 mph 2 mph 90% 0.00 in 150 W/m2
07:10 49.3 °F 46.2 °F 30.10 in West 1 mph 3 mph 89% 0.00 in 170 W/m2
07:20 49.9 °F 46.8 °F 30.10 in Calm   2 mph 89% 0.00 in 206 W/m2
07:30 50.6 °F 47.5 °F 30.10 in West 1 mph 2 mph 89% 0.00 in 238 W/m2
07:40 51.4 °F 48 °F 30.10 in WNW 1 mph 3 mph 88% 0.00 in 278 W/m2
07:50 52.3 °F 48.9 °F 30.10 in Calm   2 mph 88% 0.00 in 312 W/m2
08:00 53.3 °F 49.3 °F 30.10 in West 2 mph 3 mph 86% 0.00 in 335 W/m2
08:10 54.4 °F 49.7 °F 30.10 in WNW 1 mph 4 mph 84% 0.00 in 365 W/m2
08:20 55.6 °F 50.5 °F 30.10 in WSW 1 mph 4 mph 83% 0.00 in 397 W/m2
08:30 57 °F 51.2 °F 30.10 in WSW 1 mph 3 mph 81% 0.00 in 437 W/m2
Knjazevac, Serbia
Compliments of Weather Underground - 2 mb